Time;durP1;ratioP1;P1;durP2;ratioP2;P2;SDS_P1;SDS_P2;PMS_P1;PMS_P2;Temp;Humidity;BMP_temperature;BMP_pressure;BME280_temperature;BME280_humidity;BME280_pressure;Samples;Min_cycle;Max_cycle;Signal;HPM_P1;HPM_P2
2022/05/17 00:01:07;;;;;;;5.50;1.50;;;;;;;17.12;64.83;102024.38;5013723;28;124775;-34
2022/05/17 00:03:41;;;;;;;7.32;1.50;;;;;;;17.11;66.47;102025.38;5013413;28;116742;-34
2022/05/17 00:06:07;;;;;;;7.97;1.80;;;;;;;17.08;65.04;102019.22;5014556;28;96846;-34
2022/05/17 00:08:33;;;;;;;5.00;1.83;;;;;;;17.09;65.24;102024.59;5014292;28;99389;-34
2022/05/17 00:10:59;;;;;;;8.73;1.58;;;;;;;17.05;65.02;102011.25;5014065;28;99335;-34
2022/05/17 00:13:24;;;;;;;9.05;1.67;;;;;;;17.06;65.46;102011.09;5014803;28;96600;-34
2022/05/17 00:15:53;;;;;;;3.80;1.52;;;;;;;17.11;65.61;102016.25;5014144;28;96746;-34
2022/05/17 00:18:21;;;;;;;4.93;1.65;;;;;;;17.02;66.63;102000.47;5014317;28;97959;-34
2022/05/17 00:20:46;;;;;;;7.55;1.88;;;;;;;17.07;65.25;102026.56;4996316;28;98857;-34
2022/05/17 00:23:15;;;;;;;5.97;1.67;;;;;;;17.09;65.01;102020.97;5014354;28;96495;-34
2022/05/17 00:25:41;;;;;;;5.32;1.73;;;;;;;17.04;65.30;102012.19;4996524;28;96628;-34
2022/05/17 00:28:07;;;;;;;4.07;1.42;;;;;;;17.06;65.79;102021.19;4995713;28;100835;-34
2022/05/17 00:30:32;;;;;;;4.65;1.27;;;;;;;16.98;65.27;102017.13;5014118;28;99436;-34
2022/05/17 00:32:58;;;;;;;5.00;1.70;;;;;;;16.98;65.95;102013.53;5014142;28;102475;-34
2022/05/17 00:35:23;;;;;;;3.35;1.50;;;;;;;16.97;66.05;102019.97;5014777;28;116812;-34
2022/05/17 00:37:48;;;;;;;10.77;1.70;;;;;;;16.94;65.46;102015.56;5017972;28;97376;-35
2022/05/17 00:40:14;;;;;;;6.15;1.73;;;;;;;16.95;65.42;102020.09;5017732;28;97245;-34
2022/05/17 00:42:39;;;;;;;5.00;1.85;;;;;;;16.92;65.65;102025.78;5017905;28;96596;-34
2022/05/17 00:45:07;;;;;;;4.40;1.55;;;;;;;16.85;65.47;102012.59;5017260;28;115966;-34
2022/05/17 00:47:39;;;;;;;4.45;1.42;;;;;;;16.89;65.98;102028.72;4999587;28;101170;-34
2022/05/17 00:50:19;;;;;;;10.93;1.88;;;;;;;16.88;66.52;102026.97;5017357;28;99499;-34
2022/05/17 00:52:58;;;;;;;3.03;1.40;;;;;;;16.79;66.33;102021.25;4999153;28;96579;-34
2022/05/17 00:55:29;;;;;;;14.18;2.28;;;;;;;16.82;67.21;102032.00;4999336;28;96840;-34
2022/05/17 00:58:13;;;;;;;4.75;2.03;;;;;;;16.80;67.19;102032.09;5016067;28;100952;-34
2022/05/17 01:00:48;;;;;;;7.68;1.60;;;;;;;16.78;66.31;102020.34;4999367;28;100994;-34
2022/05/17 01:03:16;;;;;;;6.95;2.33;;;;;;;16.81;65.89;102031.13;4999508;28;96691;-34
2022/05/17 01:05:46;;;;;;;13.55;1.90;;;;;;;16.80;66.60;102023.00;5017631;28;96968;-34
2022/05/17 01:08:16;;;;;;;3.00;1.70;;;;;;;16.79;66.22;102032.22;5017173;28;98001;-34
2022/05/17 01:10:41;;;;;;;8.38;2.03;;;;;;;16.73;66.18;102017.94;4999201;28;100721;-34
2022/05/17 01:15:51;;;;;;;4.32;1.70;;;;;;;16.73;66.94;102022.50;5017102;28;96653;-34
2022/05/17 01:18:16;;;;;;;8.95;1.52;;;;;;;16.71;66.54;102021.75;4998578;28;101051;-34
2022/05/17 01:20:42;;;;;;;4.70;1.20;;;;;;;16.60;66.45;102010.66;5016467;28;104749;-34
2022/05/17 01:23:08;;;;;;;8.18;2.22;;;;;;;16.70;66.22;102026.34;5017608;28;96539;-34
2022/05/17 01:25:34;;;;;;;11.32;2.08;;;;;;;16.71;66.25;102016.28;5016916;28;106522;-34
2022/05/17 01:28:09;;;;;;;2.92;1.73;;;;;;;16.67;66.39;102015.59;5016845;28;97897;-34
2022/05/17 01:30:36;;;;;;;7.07;1.95;;;;;;;16.62;66.58;102019.66;4999001;28;100877;-34
2022/05/17 01:33:02;;;;;;;5.53;1.65;;;;;;;16.59;66.83;102028.94;5017225;28;96542;-34
2022/05/17 01:35:28;;;;;;;11.80;1.90;;;;;;;16.63;66.87;102027.75;4999437;28;96975;-34
2022/05/17 01:37:55;;;;;;;5.53;1.65;;;;;;;16.61;66.38;102026.97;5016865;28;97901;-34
2022/05/17 01:40:22;;;;;;;7.38;1.85;;;;;;;16.61;66.83;102026.97;5016721;28;97672;-34
2022/05/17 01:42:47;;;;;;;8.75;1.77;;;;;;;16.59;66.55;102019.84;4998579;28;96530;-34
2022/05/17 01:45:12;;;;;;;4.90;1.88;;;;;;;16.59;66.81;102037.16;5016767;28;96841;-34
2022/05/17 01:47:38;;;;;;;10.38;1.92;;;;;;;16.55;67.26;102025.53;5015572;28;122002;-34
2022/05/17 01:50:04;;;;;;;5.15;1.55;;;;;;;16.55;67.06;102017.31;5016423;28;99269;-34
2022/05/17 01:52:29;;;;;;;3.35;1.50;;;;;;;16.59;67.08;102028.03;5017041;28;96490;-34
2022/05/17 01:54:54;;;;;;;3.50;2.03;;;;;;;16.56;66.78;102013.63;5016225;28;114742;-34
2022/05/17 01:57:20;;;;;;;11.45;2.33;;;;;;;16.52;67.62;102009.34;5015631;28;114279;-34
2022/05/17 01:59:45;;;;;;;5.53;1.60;;;;;;;16.55;67.14;102013.72;5016889;28;97780;-34
2022/05/17 02:02:10;;;;;;;4.15;1.73;;;;;;;16.51;66.94;102006.69;5016789;28;96483;-34
2022/05/17 02:04:36;;;;;;;3.63;1.80;;;;;;;16.52;67.44;102020.28;5016897;28;96756;-34
2022/05/17 02:07:01;;;;;;;4.22;1.70;;;;;;;16.52;68.14;102028.47;5016272;28;97283;-34
2022/05/17 02:09:27;;;;;;;7.55;2.17;;;;;;;16.47;67.29;102016.09;5016187;28;97863;-34
2022/05/17 02:11:52;;;;;;;5.10;2.03;;;;;;;16.45;67.04;102021.69;5016001;28;103394;-34
2022/05/17 02:14:17;;;;;;;5.72;2.28;;;;;;;16.50;67.36;102026.84;5016279;28;96847;-33
2022/05/17 02:16:43;;;;;;;8.60;2.50;;;;;;;16.49;68.23;102036.91;5017536;28;99508;-34
2022/05/17 02:19:09;;;;;;;4.47;1.80;;;;;;;16.42;67.22;102021.88;5016323;28;97857;-34
2022/05/17 02:21:36;;;;;;;6.63;1.58;;;;;;;16.44;67.42;102029.97;5016501;28;96458;-34
2022/05/17 02:24:02;;;;;;;6.93;1.88;;;;;;;16.43;67.30;102034.56;4998714;28;96912;-34
2022/05/17 02:26:28;;;;;;;7.63;2.45;;;;;;;16.37;67.34;102020.44;4997832;28;101525;-34
2022/05/17 02:28:54;;;;;;;4.05;1.08;;;;;;;16.41;66.91;102028.31;5015907;28;99277;-34
2022/05/17 02:31:19;;;;;;;9.65;2.05;;;;;;;16.43;67.10;102028.22;5015500;28;96631;-34
2022/05/17 02:33:45;;;;;;;5.88;2.05;;;;;;;16.42;68.08;102029.19;5016044;28;96533;-34
2022/05/17 02:36:11;;;;;;;5.80;2.15;;;;;;;16.43;67.37;102031.84;4997678;28;101121;-34
2022/05/17 02:38:36;;;;;;;6.80;2.08;;;;;;;16.39;67.79;102023.94;4997742;28;99049;-34
2022/05/17 02:41:02;;;;;;;8.07;2.17;;;;;;;16.43;67.60;102030.97;5016075;28;96566;-34
2022/05/17 02:43:27;;;;;;;13.73;2.40;;;;;;;16.35;67.36;102017.78;5015296;28;115597;-34
2022/05/17 02:45:53;;;;;;;10.40;2.30;;;;;;;16.37;67.08;102020.44;5015443;28;99373;-34
2022/05/17 02:48:19;;;;;;;6.63;1.95;;;;;;;16.42;67.57;102027.38;5016139;28;97816;-34
2022/05/17 02:50:44;;;;;;;7.07;2.00;;;;;;;16.41;67.58;102028.31;5016268;28;96607;-34
2022/05/17 02:53:09;;;;;;;5.50;2.28;;;;;;;16.38;67.14;102019.47;5015352;28;111604;-34
2022/05/17 02:55:35;;;;;;;7.00;1.98;;;;;;;16.43;67.48;102040.03;5014775;28;97525;-34
2022/05/17 02:58:00;;;;;;;7.68;2.22;;;;;;;16.42;67.98;102040.13;5013788;28;120195;-34
2022/05/17 03:00:26;;;;;;;5.93;2.42;;;;;;;16.40;67.99;102043.00;5015878;28;96632;-34
2022/05/17 03:02:52;;;;;;;9.35;1.80;;;;;;;16.47;68.43;102047.06;5015980;28;96789;-34
2022/05/17 03:05:18;;;;;;;9.05;2.17;;;;;;;16.43;67.41;102036.44;4997372;28;100916;-34
2022/05/17 03:07:43;;;;;;;5.75;1.80;;;;;;;16.48;67.27;102045.22;5015211;28;99639;-34
2022/05/17 03:10:10;;;;;;;6.38;2.38;;;;;;;16.47;67.60;102046.16;5015616;28;96613;-34
2022/05/17 03:12:36;;;;;;;5.03;2.30;;;;;;;16.47;67.40;102046.16;4997664;28;96900;-34
2022/05/17 03:15:03;;;;;;;7.75;2.22;;;;;;;16.44;68.50;102046.38;5000686;28;101039;-34
2022/05/17 03:17:29;;;;;;;8.23;1.95;;;;;;;16.41;67.76;102044.72;5017077;28;101576;-34
2022/05/17 03:19:55;;;;;;;5.00;1.90;;;;;;;16.45;67.62;102059.97;5035231;28;96492;-34
2022/05/17 03:22:20;;;;;;;8.85;2.45;;;;;;;16.45;67.29;102062.69;5033986;28;96930;-34
2022/05/17 03:24:45;;;;;;;5.60;2.25;;;;;;;16.43;67.38;102067.38;5034385;28;122814;-34
2022/05/17 03:27:11;;;;;;;8.57;2.45;;;;;;;16.43;67.40;102055.59;5034291;28;119497;-34
2022/05/17 03:29:36;;;;;;;5.32;2.38;;;;;;;16.37;67.61;102058.72;5034549;28;117029;-34
2022/05/17 03:32:02;;;;;;;5.80;2.38;;;;;;;16.41;67.55;102063.00;5035573;28;96812;-34
2022/05/17 03:34:27;;;;;;;8.23;1.75;;;;;;;16.43;67.74;102063.78;5034918;28;99318;-34
2022/05/17 03:36:52;;;;;;;5.90;2.15;;;;;;;16.42;67.73;102062.91;5035501;28;97928;-34
2022/05/17 03:39:18;;;;;;;8.65;2.17;;;;;;;16.41;67.65;102063.00;5034538;28;111726;-34
2022/05/17 03:41:44;;;;;;;6.32;2.40;;;;;;;16.45;67.36;102072.78;5035527;28;96813;-34
2022/05/17 03:44:09;;;;;;;11.90;2.58;;;;;;;16.41;68.43;102066.63;5034134;28;108387;-34
2022/05/17 03:46:34;;;;;;;6.10;2.42;;;;;;;16.41;67.67;102076.69;5035046;28;97426;-34
2022/05/17 03:49:06;;;;;;;3.92;2.25;;;;;;;16.46;68.85;102080.84;5034729;28;100486;-34
2022/05/17 03:51:31;;;;;;;7.13;2.20;;;;;;;16.43;67.76;102081.06;5034948;28;96849;-34
2022/05/17 03:53:56;;;;;;;15.40;2.72;;;;;;;16.47;68.08;102079.91;5034897;28;98625;-34
2022/05/17 03:56:22;;;;;;;6.47;2.58;;;;;;;16.49;67.81;102086.13;5033884;28;123719;-34
2022/05/17 03:58:47;;;;;;;9.43;2.45;;;;;;;16.45;67.54;102079.09;5035299;28;96366;-34
2022/05/17 04:01:13;;;;;;;4.85;1.95;;;;;;;16.51;67.71;102097.81;5035741;28;96837;-34
2022/05/17 04:03:39;;;;;;;6.13;2.25;;;;;;;16.50;67.99;102078.81;5034686;28;97975;-34
2022/05/17 04:06:05;;;;;;;8.63;2.40;;;;;;;16.48;67.81;102084.38;5034452;28;99163;-35
2022/05/17 04:08:31;;;;;;;8.35;2.50;;;;;;;16.41;67.65;102072.09;5015972;28;96653;-34
2022/05/17 04:10:57;;;;;;;3.75;1.98;;;;;;;16.50;67.80;102074.22;5034649;28;96813;-34
2022/05/17 04:13:26;;;;;;;10.32;3.30;;;;;;;16.47;67.90;102073.53;5032982;28;100756;-34
2022/05/17 04:15:51;;;;;;;7.13;2.17;;;;;;;16.50;67.91;102074.22;5015684;28;100681;-34
2022/05/17 04:18:17;;;;;;;10.45;2.88;;;;;;;16.50;67.54;102079.69;5033427;28;96606;-34
2022/05/17 04:20:42;;;;;;;5.60;2.28;;;;;;;16.51;67.88;102072.34;5034531;28;96788;-34
2022/05/17 04:23:07;;;;;;;5.97;2.20;;;;;;;16.53;67.79;102075.84;5033453;28;126497;-34
2022/05/17 04:25:33;;;;;;;6.38;3.00;;;;;;;16.55;67.61;102082.09;5016683;28;97937;-34
2022/05/17 04:27:58;;;;;;;12.75;2.85;;;;;;;16.61;67.65;102094.47;5034685;28;96530;-34
2022/05/17 04:30:24;;;;;;;3.90;2.20;;;;;;;16.61;67.48;102091.75;5034512;28;96899;-34
2022/05/17 04:32:50;;;;;;;7.78;2.92;;;;;;;16.62;67.46;102090.78;5015565;28;101471;-34
2022/05/17 04:35:17;;;;;;;5.55;2.30;;;;;;;16.65;67.25;102094.19;5034111;28;97736;-34
2022/05/17 04:37:43;;;;;;;7.65;2.03;;;;;;;16.64;67.60;102094.31;5016395;28;97146;-34
2022/05/17 04:40:11;;;;;;;6.07;1.98;;;;;;;16.69;67.44;102108.53;5034530;28;96834;-34
2022/05/17 04:42:43;;;;;;;8.57;2.38;;;;;;;16.71;67.50;102103.84;5016041;28;100927;-34
2022/05/17 04:45:13;;;;;;;8.85;2.05;;;;;;;16.69;67.50;102108.53;5034435;28;97956;-34
2022/05/17 04:47:40;;;;;;;7.65;2.17;;;;;;;16.73;67.37;102108.25;5034672;28;96616;-34
2022/05/17 04:50:05;;;;;;;4.78;2.08;;;;;;;16.70;67.19;102110.28;5034469;28;96927;-34
2022/05/17 04:52:31;;;;;;;6.03;2.33;;;;;;;16.76;67.32;102118.97;5015849;28;101595;-34
2022/05/17 04:54:56;;;;;;;18.85;2.80;;;;;;;16.72;67.40;102111.94;5033311;28;122207;-34
2022/05/17 04:57:22;;;;;;;7.47;3.03;;;;;;;16.79;67.41;102117.03;5033579;28;97172;-34
2022/05/17 04:59:47;;;;;;;4.63;2.25;;;;;;;16.75;67.61;102113.59;5032794;28;96757;-34
2022/05/17 05:02:12;;;;;;;8.73;2.90;;;;;;;16.75;67.31;102114.44;5034105;28;97386;-34
2022/05/17 05:04:38;;;;;;;9.50;2.10;;;;;;;16.75;67.37;102108.13;5033555;28;99514;-34
2022/05/17 05:07:07;;;;;;;5.10;1.83;;;;;;;16.77;67.15;102117.09;5034287;28;96643;-34
2022/05/17 05:09:33;;;;;;;7.00;1.55;;;;;;;16.75;66.91;102110.84;5015962;28;96962;-34
2022/05/17 05:11:59;;;;;;;14.30;1.85;;;;;;;16.80;66.98;102114.19;5015520;28;100656;-34
2022/05/17 05:14:25;;;;;;;10.30;1.98;;;;;;;16.76;66.29;102110.75;5016085;28;97369;-34
2022/05/17 05:16:50;;;;;;;9.30;1.77;;;;;;;16.81;66.41;102118.69;5014431;28;96898;-34
2022/05/17 05:19:15;;;;;;;12.70;1.55;;;;;;;16.82;66.11;102114.97;5029625;28;96844;-34
2022/05/17 05:21:41;;;;;;;5.82;1.30;;;;;;;16.82;66.01;102114.97;5014881;28;100094;-34
2022/05/17 05:24:07;;;;;;;3.30;1.15;;;;;;;16.84;66.06;102110.25;5016730;28;109810;-34
2022/05/17 05:26:34;;;;;;;9.80;1.52;;;;;;;16.89;66.01;102118.16;5017105;28;96650;-34
2022/05/17 05:28:59;;;;;;;8.35;1.50;;;;;;;16.88;66.47;102125.50;4999224;28;96901;-34
2022/05/17 05:31:24;;;;;;;6.70;1.95;;;;;;;16.85;66.50;102122.09;5017010;28;97357;-34
2022/05/17 05:33:49;;;;;;;4.20;1.35;;;;;;;16.88;67.21;102125.50;5015903;28;126874;-34
2022/05/17 05:36:15;;;;;;;2.80;1.20;;;;;;;16.94;67.08;102126.94;5014609;28;118315;-34
2022/05/17 05:38:41;;;;;;;5.03;1.70;;;;;;;16.87;66.77;102111.91;5017306;28;96829;-34
2022/05/17 05:41:09;;;;;;;7.65;1.95;;;;;;;16.86;67.08;102112.91;5016522;28;99331;-34
2022/05/17 05:43:35;;;;;;;2.95;0.98;;;;;;;16.86;66.77;102124.72;4998642;28;101051;-34
2022/05/17 05:46:00;;;;;;;5.95;1.50;;;;;;;16.88;66.86;102125.50;5015722;28;118250;-34
2022/05/17 05:48:25;;;;;;;5.25;1.88;;;;;;;16.84;66.70;102123.94;5016250;28;107584;-34
2022/05/17 05:50:55;;;;;;;2.65;1.02;;;;;;;16.82;66.83;102120.44;5015463;28;126398;-34
2022/05/17 05:53:22;;;;;;;3.72;1.20;;;;;;;16.84;66.82;102123.06;5016960;28;97869;-34
2022/05/17 05:56:05;;;;;;;11.27;2.03;;;;;;;16.85;66.66;102119.34;5015405;28;96537;-34
2022/05/17 05:58:34;;;;;;;8.07;1.33;;;;;;;16.88;67.03;102125.50;5015599;28;96740;-34
2022/05/17 06:01:01;;;;;;;4.55;1.52;;;;;;;16.89;67.12;102134.59;5031154;28;98506;-34
2022/05/17 06:03:28;;;;;;;5.80;1.17;;;;;;;16.87;66.72;102122.84;4998651;28;101161;-34
2022/05/17 06:05:56;;;;;;;7.90;1.45;;;;;;;16.87;66.83;102134.69;4998328;28;96558;-34
2022/05/17 06:08:25;;;;;;;5.85;1.50;;;;;;;16.82;67.61;102117.69;5016073;28;96641;-34
2022/05/17 06:10:50;;;;;;;6.28;1.58;;;;;;;16.81;66.95;102126.91;5015431;28;97925;-34
2022/05/17 06:13:16;;;;;;;3.70;1.33;;;;;;;16.79;66.86;102130.72;5015990;28;98864;-34
2022/05/17 06:15:43;;;;;;;4.97;2.00;;;;;;;16.82;67.41;102116.81;5023726;28;96776;-34
2022/05/17 06:18:15;;;;;;;12.27;1.85;;;;;;;16.84;66.90;102129.41;5002902;28;96913;-34
2022/05/17 06:20:50;;;;;;;5.53;1.10;;;;;;;16.86;67.08;102121.13;5036137;28;97911;-34
2022/05/17 06:23:19;;;;;;;5.28;1.77;;;;;;;16.86;67.08;102132.94;5034719;28;101036;-34
2022/05/17 06:25:44;;;;;;;3.70;1.27;;;;;;;16.80;67.11;102121.53;5036277;28;96647;-34
2022/05/17 06:28:14;;;;;;;6.47;1.23;;;;;;;16.87;67.17;102129.19;5036828;28;96808;-34
2022/05/17 06:30:43;;;;;;;15.10;1.55;;;;;;;16.85;67.53;102127.56;5036048;28;98249;-34
2022/05/17 06:33:10;;;;;;;3.90;1.38;;;;;;;16.94;66.79;102137.88;5035911;27;98027;-34
2022/05/17 06:35:42;;;;;;;1.63;0.98;;;;;;;16.90;66.95;102134.50;5017803;28;96788;-34
2022/05/17 06:38:09;;;;;;;3.22;1.23;;;;;;;17.00;66.66;102142.09;5034709;28;96995;-34
2022/05/17 06:40:38;;;;;;;5.80;1.40;;;;;;;16.98;66.98;102137.56;5035686;28;99654;-34
2022/05/17 06:43:04;;;;;;;4.18;1.50;;;;;;;16.99;67.48;102130.22;5016982;28;97854;-34
2022/05/17 06:45:30;;;;;;;3.55;1.50;;;;;;;17.04;67.06;102132.66;5051711;27;96524;-34
2022/05/17 06:47:57;;;;;;;7.20;1.50;;;;;;;17.04;67.66;102136.28;5035840;28;96869;-33
2022/05/17 06:50:22;;;;;;;3.78;1.50;;;;;;;17.07;66.96;102132.47;5014047;28;100904;-34
2022/05/17 06:52:48;;;;;;;2.85;1.17;;;;;;;17.07;66.97;102125.13;4981216;28;100724;-34
2022/05/17 06:55:17;;;;;;;4.35;1.45;;;;;;;17.18;66.77;102138.06;4997864;28;96583;-34
2022/05/17 06:57:45;;;;;;;2.13;1.13;;;;;;;17.19;66.65;102124.28;4997932;28;96950;-34
2022/05/17 07:00:15;;;;;;;8.02;1.15;;;;;;;17.23;66.53;102122.19;4997516;28;99881;-34
2022/05/17 07:02:40;;;;;;;7.13;1.20;;;;;;;17.23;66.31;102122.19;5015234;28;99660;-34
2022/05/17 07:05:09;;;;;;;5.00;1.50;;;;;;;17.31;66.38;102133.50;4997553;28;96656;-34
2022/05/17 07:07:34;;;;;;;4.45;1.60;;;;;;;17.36;66.52;102136.78;4997311;28;96909;-34
2022/05/17 07:15:31;;;;;;;5.13;1.80;;;;;;;17.49;66.19;102135.94;5009054;28;96772;-34
2022/05/17 07:18:04;;;;;;;3.72;1.45;;;;;;;17.53;66.18;102134.75;4995795;28;96764;-34
2022/05/17 07:20:29;;;;;;;4.45;1.08;;;;;;;17.50;65.79;102130.34;4976883;28;100956;-34
2022/05/17 07:22:55;;;;;;;3.67;1.38;;;;;;;17.56;66.00;102140.00;4994890;28;99424;-34
2022/05/17 07:25:23;;;;;;;2.20;1.20;;;;;;;17.50;65.69;102137.72;4977016;28;96577;-34
2022/05/17 07:27:54;;;;;;;7.75;1.30;;;;;;;17.56;66.37;102148.22;4977875;28;96888;-34
2022/05/17 07:30:21;;;;;;;3.90;1.75;;;;;;;17.51;65.88;102150.41;4994485;28;100913;-34
2022/05/17 07:32:46;;;;;;;3.70;1.20;;;;;;;17.54;65.96;102151.09;4977160;28;97290;-34
2022/05/17 07:35:13;;;;;;;2.90;1.30;;;;;;;17.56;66.10;102149.09;4994938;28;96530;-34
2022/05/17 07:37:44;;;;;;;3.13;1.10;;;;;;;17.56;65.80;102153.69;4993740;28;96814;-34
2022/05/17 07:40:12;;;;;;;3.67;1.05;;;;;;;17.59;66.34;102161.69;4993588;28;100998;-34
2022/05/17 07:42:38;;;;;;;4.03;1.23;;;;;;;17.63;65.74;102166.84;4993721;28;101363;-34
2022/05/17 07:45:05;;;;;;;4.18;1.25;;;;;;;17.67;65.84;102166.66;4976678;28;96633;-34
2022/05/17 07:47:33;;;;;;;5.05;1.13;;;;;;;17.64;65.95;102154.06;4977173;28;96982;-34
2022/05/17 07:49:58;;;;;;;2.00;1.15;;;;;;;17.72;65.57;102167.19;4994318;28;97939;-34
2022/05/17 07:52:25;;;;;;;2.50;0.98;;;;;;;17.78;65.15;102169.50;4994873;28;96819;-34
2022/05/17 07:54:51;;;;;;;2.40;1.00;;;;;;;17.80;65.20;102162.97;4977439;28;96624;-34
2022/05/17 07:57:19;;;;;;;1.40;0.80;;;;;;;17.88;65.47;102165.16;4960666;28;96923;-34
2022/05/17 07:59:45;;;;;;;3.03;1.27;;;;;;;18.00;65.15;102157.94;4994658;28;97448;-34
2022/05/17 08:02:13;;;;;;;2.03;0.98;;;;;;;18.13;64.58;102152.41;4977253;28;97833;-34
2022/05/17 08:04:39;;;;;;;5.15;0.98;;;;;;;18.41;64.73;102162.25;4994784;28;96506;-34
2022/05/17 08:07:05;;;;;;;1.70;0.98;;;;;;;18.60;64.13;102168.13;4992928;28;117036;-34
2022/05/17 08:09:30;;;;;;;4.57;1.20;;;;;;;18.73;63.39;102179.03;4976475;28;101076;-34
2022/05/17 08:11:56;;;;;;;2.35;0.73;;;;;;;18.80;63.52;102176.75;4994263;28;97824;-34
2022/05/17 08:14:21;;;;;;;6.63;1.02;;;;;;;18.88;63.57;102179.81;4994105;28;96574;-34
2022/05/17 08:16:47;;;;;;;2.53;1.15;;;;;;;18.99;63.40;102179.00;4994512;28;96778;-34
2022/05/17 08:19:13;;;;;;;1.15;0.77;;;;;;;19.01;64.06;102175.13;4976531;28;100608;-34
2022/05/17 08:21:39;;;;;;;2.10;1.08;;;;;;;19.06;63.52;102169.28;4976125;28;100796;-34
2022/05/17 08:24:05;;;;;;;2.45;1.15;;;;;;;19.15;63.34;102181.47;4976748;28;96781;-34
2022/05/17 08:29:15;;;;;;;4.15;1.30;;;;;;;19.15;63.52;102170.47;4994552;28;97170;-34
2022/05/17 08:31:41;;;;;;;1.27;0.73;;;;;;;19.22;63.63;102171.75;4976631;28;101342;-34
2022/05/17 08:34:08;;;;;;;4.35;1.20;;;;;;;19.28;63.25;102166.66;4994666;28;96402;-34
2022/05/17 08:36:34;;;;;;;2.22;0.95;;;;;;;19.39;63.09;102165.81;4976656;28;96753;-34
2022/05/17 08:38:59;;;;;;;3.60;1.00;;;;;;;19.43;62.93;102171.97;4993779;28;97537;-34
2022/05/17 08:41:44;;;;;;;3.25;1.17;;;;;;;19.45;62.64;102161.69;4992968;28;126889;-34
2022/05/17 08:44:13;;;;;;;5.25;1.50;;;;;;;19.47;62.87;102163.34;4993861;28;96537;-34
2022/05/17 08:47:11;;;;;;;2.53;1.10;;;;;;;19.67;62.72;102169.16;4993007;28;96849;-34
2022/05/17 08:49:58;;;;;;;1.83;1.00;;;;;;;19.78;62.93;102171.94;4992320;28;100805;-34
2022/05/17 08:52:26;;;;;;;4.43;1.10;;;;;;;19.83;62.24;102177.06;4975953;28;101272;-34
2022/05/17 08:55:10;;;;;;;1.98;1.02;;;;;;;19.89;62.59;102169.22;4976280;28;96682;-34
2022/05/17 08:57:49;;;;;;;2.70;1.02;;;;;;;19.93;63.33;102173.47;4997942;28;96865;-34
2022/05/17 09:00:23;;;;;;;4.55;1.45;;;;;;;19.91;62.80;102172.72;4979483;28;101199;-34
2022/05/17 09:02:49;;;;;;;2.45;0.77;;;;;;;19.89;62.53;102162.84;4979347;28;99940;-34
2022/05/17 09:05:33;;;;;;;2.63;0.80;;;;;;;19.98;62.74;102170.38;4997113;28;96739;-34
2022/05/17 09:08:24;;;;;;;1.73;0.75;;;;;;;19.97;62.16;102159.47;4997443;28;96861;-34
2022/05/17 09:10:52;;;;;;;1.08;0.77;;;;;;;20.12;61.96;102153.63;4996994;28;99528;-34
2022/05/17 09:13:33;;;;;;;1.50;1.00;;;;;;;20.26;61.47;102157.09;4979190;28;101934;-34
2022/05/17 09:16:00;;;;;;;1.90;0.82;;;;;;;20.35;61.48;102145.34;4997356;28;96947;-34
2022/05/17 09:18:26;;;;;;;4.07;1.10;;;;;;;20.45;61.22;102150.97;4997402;28;96929;-34
2022/05/17 09:20:52;;;;;;;2.20;1.27;;;;;;;20.46;61.31;102144.47;4978393;28;100853;-34
2022/05/17 09:23:17;;;;;;;6.13;1.52;;;;;;;20.54;61.03;102139.19;4997617;28;97841;-34
2022/05/17 09:25:58;;;;;;;1.88;0.75;;;;;;;20.99;60.37;102141.84;4997534;28;97338;-34
2022/05/17 09:28:26;;;;;;;2.30;0.90;;;;;;;21.14;59.79;102153.44;4997323;28;96644;-34
2022/05/17 09:31:17;;;;;;;1.60;1.00;;;;;;;21.13;59.70;102147.06;4978456;28;101020;-34
2022/05/17 09:33:42;;;;;;;4.53;0.98;;;;;;;21.30;59.60;102147.50;4997026;28;97845;-34
2022/05/17 09:36:16;;;;;;;6.15;1.33;;;;;;;21.55;59.36;102135.25;4979122;28;96751;-34
2022/05/17 09:38:42;;;;;;;4.45;1.15;;;;;;;21.85;58.15;102140.78;4995870;28;96738;-34
2022/05/17 09:41:12;;;;;;;2.33;1.10;;;;;;;22.16;57.66;102135.25;4996940;28;98038;-34
2022/05/17 09:43:44;;;;;;;4.43;1.60;;;;;;;22.43;57.06;102144.88;4978797;28;102614;-34
2022/05/17 09:46:26;;;;;;;2.50;1.08;;;;;;;22.76;56.09;102145.50;4996834;28;96495;-34
2022/05/17 09:55:12;;;;;;;4.00;1.40;;;;;;;22.90;55.44;102137.69;4993392;28;97090;-34
2022/05/17 09:57:50;;;;;;;2.70;1.65;;;;;;;22.91;55.98;102127.53;4996426;28;96595;-34
2022/05/17 10:00:25;;;;;;;2.83;1.35;;;;;;;22.73;55.74;102119.03;4978504;28;96826;-34
2022/05/17 10:02:57;;;;;;;4.03;1.67;;;;;;;22.99;55.58;102118.53;4995127;28;100651;-34
2022/05/17 10:05:25;;;;;;;3.30;1.60;;;;;;;23.29;54.99;102129.44;4978355;28;101228;-34
2022/05/17 10:08:21;;;;;;;4.28;1.67;;;;;;;23.38;55.13;102111.09;4978337;28;96579;-34
2022/05/17 10:11:14;;;;;;;3.00;1.42;;;;;;;23.51;54.34;102114.41;4996186;28;96895;-34
2022/05/17 10:13:45;;;;;;;2.10;1.33;;;;;;;23.72;54.09;102116.13;4996446;28;97990;-34
2022/05/17 10:16:22;;;;;;;8.53;2.10;;;;;;;23.97;53.55;102114.63;4997758;28;111241;-33
2022/05/17 10:18:59;;;;;;;4.85;1.67;;;;;;;24.12;52.77;102109.44;4996649;28;96595;-34
2022/05/17 10:21:37;;;;;;;3.95;2.03;;;;;;;24.34;53.48;102106.28;4977881;28;97245;-33
2022/05/17 10:24:16;;;;;;;4.95;1.73;;;;;;;24.28;52.61;102094.94;4995450;28;99486;-34
2022/05/17 10:26:51;;;;;;;6.78;2.13;;;;;;;24.48;52.77;102099.41;4978048;28;100764;-34
2022/05/17 10:29:32;;;;;;;5.82;2.08;;;;;;;24.44;52.36;102099.84;4978634;28;96700;-34
2022/05/17 10:32:14;;;;;;;6.33;2.00;;;;;;;24.53;52.06;102094.25;4989877;28;96714;-35
2022/05/17 10:34:52;;;;;;;3.97;1.65;;;;;;;24.62;51.58;102084.13;5012726;28;98086;-34
2022/05/17 10:37:22;;;;;;;4.35;1.90;;;;;;;24.67;51.90;102075.34;5019610;28;100728;-34
2022/05/17 10:39:59;;;;;;;6.95;2.22;;;;;;;24.71;50.27;102082.31;5016189;28;96550;-34
2022/05/17 10:42:27;;;;;;;4.70;2.28;;;;;;;24.71;50.15;102076.78;5016849;28;96555;-34
2022/05/17 10:44:54;;;;;;;7.38;2.65;;;;;;;24.61;50.63;102067.66;5015725;28;98102;-34
2022/05/17 10:47:28;;;;;;;5.88;2.33;;;;;;;24.77;50.07;102081.69;5030092;28;100542;-34
2022/05/17 10:50:10;;;;;;;4.90;2.13;;;;;;;24.99;50.34;102078.44;5015231;28;97015;-35
2022/05/17 10:52:52;;;;;;;5.05;2.20;;;;;;;25.16;47.80;102067.50;5015507;28;98103;-34
2022/05/17 10:55:25;;;;;;;6.25;2.03;;;;;;;25.13;49.51;102063.16;5014531;28;97563;-34
2022/05/17 10:58:03;;;;;;;4.28;1.80;;;;;;;25.35;49.04;102059.00;5012325;28;100762;-34
2022/05/17 11:00:40;;;;;;;6.10;2.40;;;;;;;25.55;47.39;102064.34;4997749;28;96585;-34
2022/05/17 11:03:12;;;;;;;8.02;2.35;;;;;;;25.64;48.28;102058.69;5014585;28;96825;-34
2022/05/17 11:06:15;;;;;;;5.97;2.22;;;;;;;25.88;48.24;102067.34;5013957;28;101083;-34
2022/05/17 11:08:59;;;;;;;7.10;2.60;;;;;;;25.95;47.25;102060.09;5015419;28;97875;-35
2022/05/17 11:11:57;;;;;;;11.23;2.65;;;;;;;25.85;47.27;102049.94;4996140;28;96699;-34
2022/05/17 11:14:44;;;;;;;6.72;2.50;;;;;;;25.82;47.04;102053.06;4996885;28;96784;-34
2022/05/17 11:17:26;;;;;;;3.97;2.40;;;;;;;25.82;45.33;102038.31;4996548;28;100824;-34
2022/05/17 11:20:09;;;;;;;;;;;;;;;25.97;47.57;102056.13;5014897;28;97608;-34
2022/05/17 11:22:44;;;;;;;5.57;2.30;;;;;;;26.10;46.35;102047.34;5015509;28;96630;-34
2022/05/17 11:25:39;;;;;;;4.47;2.10;;;;;;;26.32;46.72;102034.75;4997576;28;96839;-34
2022/05/17 11:28:39;;;;;;;8.65;2.70;;;;;;;26.50;45.24;102029.03;4996663;28;100940;-34
2022/05/17 11:31:12;;;;;;;5.13;2.15;;;;;;;26.57;46.16;102019.00;5015559;28;97419;-34
2022/05/17 11:33:40;;;;;;;4.43;2.25;;;;;;;26.73;46.61;102017.31;5013955;28;96631;-34
2022/05/17 11:36:07;;;;;;;6.10;2.03;;;;;;;26.67;45.50;102011.41;4997301;28;96873;-34
2022/05/17 11:38:33;;;;;;;7.97;3.10;;;;;;;26.74;45.40;102019.03;5013469;28;100810;-34
2022/05/17 11:41:06;;;;;;;5.63;2.40;;;;;;;26.59;46.06;102010.50;5014882;28;101572;-34
2022/05/17 11:43:45;;;;;;;5.93;2.28;;;;;;;26.51;45.90;102030.78;4996553;28;96584;-34
2022/05/17 11:46:49;;;;;;;7.40;2.30;;;;;;;26.46;46.51;102019.31;4997103;28;96880;-34
2022/05/17 11:49:14;;;;;;;10.52;2.63;;;;;;;26.68;46.36;102015.91;5014835;28;99299;-34